Time;durP1;ratioP1;P1;durP2;ratioP2;P2;SDS_P1;SDS_P2;PMS_P1;PMS_P2;Temp;Humidity;BMP_temperature;BMP_pressure;BME280_temperature;BME280_humidity;BME280_pressure;Samples;Min_cycle;Max_cycle;Signal;HPM_P1;HPM_P2
2023/11/29 00:02:02;;;;;;;1.88;1.65;;;15.00;59.10;;;;;;5054499;28;20171;-67
2023/11/29 00:04:27;;;;;;;1.88;1.77;;;15.00;59.00;;;;;;5054193;28;20190;-68
2023/11/29 00:06:53;;;;;;;1.80;1.70;;;15.00;59.10;;;;;;5053668;28;20171;-68
2023/11/29 00:09:18;;;;;;;1.70;1.60;;;15.00;59.10;;;;;;5054246;28;20179;-70
2023/11/29 00:11:44;;;;;;;1.80;1.70;;;15.00;59.10;;;;;;5054403;28;20175;-69
2023/11/29 00:14:10;;;;;;;1.60;1.50;;;15.00;59.20;;;;;;5053609;28;20175;-68
2023/11/29 00:16:35;;;;;;;2.15;1.98;;;14.90;58.90;;;;;;5053970;28;20175;-68
2023/11/29 00:19:01;;;;;;;1.73;1.63;;;14.90;59.00;;;;;;5053772;28;20218;-68
2023/11/29 00:21:28;;;;;;;1.90;1.80;;;14.90;59.10;;;;;;5053199;28;20209;-69
2023/11/29 00:23:54;;;;;;;1.60;1.50;;;14.90;59.20;;;;;;5054260;28;20209;-70
2023/11/29 00:26:23;;;;;;;1.73;1.63;;;14.90;59.20;;;;;;5053102;28;20242;-68
2023/11/29 00:28:49;;;;;;;1.70;1.60;;;14.90;59.20;;;;;;5054046;28;20183;-68
2023/11/29 00:31:14;;;;;;;1.73;1.63;;;14.90;59.10;;;;;;5053949;28;20171;-67
2023/11/29 00:33:40;;;;;;;1.90;1.80;;;14.90;59.30;;;;;;5053298;28;20198;-68
2023/11/29 00:36:06;;;;;;;1.77;1.67;;;14.90;58.90;;;;;;5054022;28;20167;-69
2023/11/29 00:38:32;;;;;;;2.30;1.67;;;14.80;58.90;;;;;;5053445;28;20619;-68
2023/11/29 00:40:58;;;;;;;2.05;1.90;;;14.80;58.90;;;;;;5053191;28;20175;-68
2023/11/29 00:43:23;;;;;;;1.70;1.60;;;14.80;59.00;;;;;;5053227;28;20547;-66
2023/11/29 00:45:49;;;;;;;1.85;1.75;;;14.80;59.20;;;;;;5053593;28;20171;-67
2023/11/29 00:48:14;;;;;;;1.90;1.80;;;14.80;59.30;;;;;;5052606;28;20183;-68
2023/11/29 00:50:40;;;;;;;1.90;1.60;;;14.80;59.30;;;;;;5053255;28;20223;-67
2023/11/29 00:53:05;;;;;;;2.65;1.80;;;14.80;59.50;;;;;;5053802;28;20607;-69
2023/11/29 00:55:31;;;;;;;2.15;2.05;;;14.80;59.50;;;;;;5052501;28;20180;-67
2023/11/29 00:57:57;;;;;;;1.77;1.67;;;14.80;59.50;;;;;;5053413;28;20215;-68
2023/11/29 01:00:22;;;;;;;1.65;1.50;;;14.70;59.30;;;;;;5053133;28;20634;-68
2023/11/29 01:02:48;;;;;;;2.30;2.10;;;14.70;59.30;;;;;;5052633;28;20179;-67
2023/11/29 01:05:13;;;;;;;1.70;1.60;;;14.70;59.50;;;;;;5053002;28;20642;-68
2023/11/29 01:07:39;;;;;;;1.90;1.80;;;14.70;59.40;;;;;;5053422;28;20182;-69
2023/11/29 01:10:05;;;;;;;2.30;2.03;;;14.70;59.20;;;;;;5052695;28;20174;-70
2023/11/29 01:12:30;;;;;;;1.50;1.40;;;14.70;59.10;;;;;;5052810;28;20258;-69
2023/11/29 01:14:57;;;;;;;1.70;1.60;;;14.70;59.50;;;;;;5053149;28;20275;-69
2023/11/29 01:17:22;;;;;;;2.25;1.92;;;14.70;59.70;;;;;;5052001;28;20207;-68
2023/11/29 01:19:48;;;;;;;2.00;1.80;;;14.70;59.60;;;;;;5052922;28;20210;-67
2023/11/29 01:22:13;;;;;;;2.05;1.85;;;14.70;59.60;;;;;;5052381;28;20171;-69
2023/11/29 01:24:39;;;;;;;1.80;1.70;;;14.70;59.30;;;;;;5052490;28;20171;-67
2023/11/29 01:27:05;;;;;;;1.70;1.60;;;14.70;59.60;;;;;;5052917;28;20203;-69
2023/11/29 01:29:31;;;;;;;1.83;1.73;;;14.60;59.20;;;;;;5051846;28;20253;-68
2023/11/29 01:31:56;;;;;;;1.83;1.73;;;14.60;59.20;;;;;;5052574;28;20633;-68
2023/11/29 01:34:22;;;;;;;2.25;2.05;;;14.60;59.50;;;;;;5052716;28;20169;-68
2023/11/29 01:36:47;;;;;;;1.85;1.60;;;14.60;59.20;;;;;;5052223;28;20243;-67
2023/11/29 01:39:14;;;;;;;2.05;1.77;;;14.60;59.40;;;;;;5052754;28;20294;-68
2023/11/29 01:41:40;;;;;;;2.00;1.83;;;14.60;59.60;;;;;;5052746;28;20202;-68
2023/11/29 01:44:06;;;;;;;1.77;1.67;;;14.60;59.40;;;;;;5051886;28;20265;-67
2023/11/29 01:46:32;;;;;;;2.00;1.90;;;14.60;59.60;;;;;;5052297;28;20254;-66
2023/11/29 01:48:57;;;;;;;1.95;1.80;;;14.50;59.20;;;;;;5051354;28;20686;-67
2023/11/29 01:51:23;;;;;;;2.10;2.00;;;14.60;59.30;;;;;;5051401;28;20215;-67
2023/11/29 01:53:50;;;;;;;2.20;2.00;;;14.50;59.60;;;;;;5052538;28;20171;-69
2023/11/29 01:56:16;;;;;;;2.10;1.90;;;14.60;59.50;;;;;;5050781;28;20947;-68
2023/11/29 01:58:42;;;;;;;2.10;2.00;;;14.50;59.30;;;;;;5051598;28;20211;-67
2023/11/29 02:01:07;;;;;;;1.70;1.60;;;14.50;59.60;;;;;;5052295;28;20703;-67
2023/11/29 02:03:35;;;;;;;2.35;1.70;;;14.50;59.70;;;;;;5051931;28;20186;-67
2023/11/29 02:06:01;;;;;;;1.80;1.70;;;14.50;59.70;;;;;;5050536;28;20185;-71
2023/11/29 02:08:27;;;;;;;2.47;2.05;;;14.50;59.50;;;;;;5051919;28;20183;-68
2023/11/29 02:10:52;;;;;;;1.90;1.80;;;14.50;60.20;;;;;;5051109;28;20194;-69
2023/11/29 02:13:18;;;;;;;1.80;1.70;;;14.50;59.60;;;;;;5051164;28;20206;-68
2023/11/29 02:15:44;;;;;;;2.03;1.83;;;14.50;59.70;;;;;;5050860;28;20585;-68
2023/11/29 02:18:09;;;;;;;2.00;1.90;;;14.50;59.60;;;;;;5052177;28;20206;-68
2023/11/29 02:20:35;;;;;;;1.75;1.65;;;14.40;59.50;;;;;;5051293;28;20171;-68
2023/11/29 02:23:14;;;;;;;2.05;1.88;;;14.40;59.50;;;;;;5052224;28;20190;-69
2023/11/29 02:25:40;;;;;;;2.08;1.98;;;14.50;59.70;;;;;;5051281;28;20171;-68
2023/11/29 02:28:05;;;;;;;1.90;1.80;;;14.50;59.60;;;;;;5051969;28;20186;-68
2023/11/29 02:30:31;;;;;;;2.15;1.80;;;14.40;59.60;;;;;;5051607;28;20174;-67
2023/11/29 02:32:56;;;;;;;1.88;1.77;;;14.40;59.80;;;;;;5051476;28;20182;-67
2023/11/29 02:35:22;;;;;;;1.80;1.70;;;14.40;59.60;;;;;;5051818;28;20171;-69
2023/11/29 02:37:47;;;;;;;1.95;1.60;;;14.40;59.50;;;;;;5051880;28;20207;-68
2023/11/29 02:40:13;;;;;;;1.88;1.70;;;14.40;59.70;;;;;;5051136;28;20168;-69
2023/11/29 02:42:38;;;;;;;1.75;1.65;;;14.40;59.60;;;;;;5051877;28;20254;-67
2023/11/29 02:45:06;;;;;;;1.98;1.80;;;14.40;59.60;;;;;;5054634;28;20626;-67
2023/11/29 02:47:32;;;;;;;1.67;1.58;;;14.40;59.60;;;;;;5055100;28;20179;-67
2023/11/29 02:49:58;;;;;;;1.67;1.58;;;14.30;59.50;;;;;;5055785;28;20217;-68
2023/11/29 02:52:23;;;;;;;1.75;1.65;;;14.30;59.40;;;;;;5055268;28;20223;-68
2023/11/29 02:54:49;;;;;;;1.58;1.30;;;14.30;59.20;;;;;;5055058;28;20553;-69
2023/11/29 02:57:14;;;;;;;1.60;1.50;;;14.30;59.50;;;;;;5055363;28;20182;-68
2023/11/29 02:59:41;;;;;;;1.65;1.55;;;14.30;59.30;;;;;;5055467;28;20218;-68
2023/11/29 03:02:07;;;;;;;1.55;1.45;;;14.30;59.60;;;;;;5055118;28;20222;-67
2023/11/29 03:04:32;;;;;;;1.60;1.50;;;14.30;59.50;;;;;;5055550;28;20654;-68
2023/11/29 03:06:58;;;;;;;1.60;1.50;;;14.30;59.20;;;;;;5055722;28;20654;-69
2023/11/29 03:09:23;;;;;;;1.90;1.60;;;14.30;59.60;;;;;;5054480;28;20649;-69
2023/11/29 03:11:49;;;;;;;1.88;1.77;;;14.30;59.70;;;;;;5055379;28;20175;-69
2023/11/29 03:14:14;;;;;;;1.60;1.50;;;14.30;59.60;;;;;;5055017;28;20175;-68
2023/11/29 03:16:40;;;;;;;1.33;1.30;;;14.30;59.70;;;;;;5054952;28;20197;-68
2023/11/29 03:19:05;;;;;;;1.67;1.40;;;14.20;59.60;;;;;;5055368;28;20207;-68
2023/11/29 03:21:34;;;;;;;1.80;1.70;;;14.20;59.60;;;;;;5055092;28;20171;-68
2023/11/29 03:23:59;;;;;;;1.60;1.50;;;14.20;59.70;;;;;;5054598;28;20175;-69
2023/11/29 03:26:24;;;;;;;1.63;1.52;;;14.20;59.50;;;;;;5054849;28;20669;-67
2023/11/29 03:28:50;;;;;;;1.63;1.52;;;14.20;59.70;;;;;;5054712;28;20194;-68
2023/11/29 03:31:15;;;;;;;1.67;1.58;;;14.20;59.70;;;;;;5054813;28;20183;-68
2023/11/29 03:33:41;;;;;;;1.63;1.52;;;14.20;59.80;;;;;;5055220;28;20179;-68
2023/11/29 03:36:07;;;;;;;1.67;1.58;;;14.20;59.70;;;;;;5054427;28;20175;-70
2023/11/29 03:38:33;;;;;;;1.60;1.50;;;14.20;59.50;;;;;;5054649;28;20231;-67
2023/11/29 03:40:58;;;;;;;1.65;1.55;;;14.20;59.60;;;;;;5054888;28;20210;-68
2023/11/29 03:43:24;;;;;;;1.75;1.65;;;14.20;59.60;;;;;;5054043;28;20219;-67
2023/11/29 03:45:49;;;;;;;1.80;1.70;;;14.20;59.30;;;;;;5054833;28;20196;-67
2023/11/29 03:48:15;;;;;;;1.65;1.55;;;14.20;59.70;;;;;;5054597;28;20182;-68
2023/11/29 03:50:40;;;;;;;2.35;2.15;;;14.20;59.50;;;;;;5053956;28;20230;-67
2023/11/29 03:53:06;;;;;;;1.70;1.60;;;14.10;59.20;;;;;;5054772;28;20175;-68
2023/11/29 03:55:31;;;;;;;2.00;1.80;;;14.10;59.50;;;;;;5054379;28;20163;-68
2023/11/29 03:57:57;;;;;;;1.80;1.70;;;14.10;59.40;;;;;;5053670;28;20206;-68
2023/11/29 04:00:23;;;;;;;2.50;1.75;;;14.10;59.60;;;;;;5054187;28;20642;-68
2023/11/29 04:02:48;;;;;;;1.83;1.70;;;14.10;59.40;;;;;;5054476;28;20179;-66
2023/11/29 04:05:14;;;;;;;1.83;1.73;;;14.10;59.40;;;;;;5053406;28;20171;-68
2023/11/29 04:07:40;;;;;;;1.92;1.83;;;14.10;59.70;;;;;;5054428;28;20321;-69
2023/11/29 04:10:05;;;;;;;2.08;1.98;;;14.10;59.70;;;;;;5054408;28;20171;-70
2023/11/29 04:12:31;;;;;;;1.95;1.80;;;14.10;59.50;;;;;;5053300;28;20548;-68
2023/11/29 04:14:56;;;;;;;1.80;1.63;;;14.10;59.60;;;;;;5054502;28;20167;-67
2023/11/29 04:17:22;;;;;;;1.90;1.80;;;14.10;59.90;;;;;;5054015;28;20175;-68
2023/11/29 04:19:48;;;;;;;2.22;2.03;;;14.00;59.60;;;;;;5053580;28;20174;-68
2023/11/29 04:22:13;;;;;;;2.03;1.85;;;14.10;59.60;;;;;;5054115;28;20179;-68
2023/11/29 04:24:39;;;;;;;1.77;1.67;;;14.10;59.60;;;;;;5054173;28;20182;-68
2023/11/29 04:27:04;;;;;;;1.60;1.50;;;14.00;59.60;;;;;;5051944;28;20175;-68
2023/11/29 04:29:30;;;;;;;1.73;1.63;;;14.10;59.80;;;;;;5053670;28;20536;-68
2023/11/29 04:31:56;;;;;;;1.85;1.75;;;14.10;59.70;;;;;;5054178;28;20168;-69
2023/11/29 04:34:21;;;;;;;1.88;1.73;;;14.00;59.80;;;;;;5052898;28;20542;-68
2023/11/29 04:36:47;;;;;;;2.35;1.63;;;14.00;59.90;;;;;;5053850;28;20179;-69
2023/11/29 04:39:13;;;;;;;2.15;1.95;;;14.00;59.80;;;;;;5053003;28;20226;-68
2023/11/29 04:41:39;;;;;;;1.95;1.85;;;14.00;59.50;;;;;;5053424;28;20182;-67
2023/11/29 04:44:06;;;;;;;1.63;1.52;;;14.00;59.60;;;;;;5053910;28;20183;-68
2023/11/29 04:46:34;;;;;;;1.85;1.75;;;14.00;59.70;;;;;;5052700;28;20186;-66
2023/11/29 04:49:00;;;;;;;1.67;1.58;;;14.00;59.90;;;;;;5053695;28;20183;-67
2023/11/29 04:51:26;;;;;;;1.73;1.63;;;14.00;59.80;;;;;;5053352;28;20230;-67
2023/11/29 04:53:52;;;;;;;1.70;1.60;;;13.90;59.70;;;;;;5052921;28;20217;-68
2023/11/29 04:56:18;;;;;;;1.95;1.80;;;13.90;59.80;;;;;;5053127;28;20733;-68
2023/11/29 04:58:44;;;;;;;1.80;1.70;;;13.90;59.90;;;;;;5053509;28;20229;-67
2023/11/29 05:01:10;;;;;;;1.80;1.70;;;13.90;59.60;;;;;;5052895;28;20179;-68
2023/11/29 05:03:39;;;;;;;1.90;1.70;;;14.00;59.80;;;;;;5053192;28;20203;-67
2023/11/29 05:06:06;;;;;;;1.95;1.42;;;13.90;60.10;;;;;;5053180;28;20175;-69
2023/11/29 05:08:35;;;;;;;2.03;1.90;;;13.90;59.80;;;;;;5051988;28;20214;-68
2023/11/29 05:11:01;;;;;;;1.70;1.60;;;13.90;59.60;;;;;;5053173;28;20172;-68
2023/11/29 05:13:27;;;;;;;1.60;1.50;;;13.90;59.60;;;;;;5053004;28;20182;-67
2023/11/29 05:15:53;;;;;;;1.75;1.65;;;13.90;59.80;;;;;;5053138;28;20676;-67
2023/11/29 05:18:18;;;;;;;1.67;1.58;;;13.90;59.80;;;;;;5052907;28;20238;-68
2023/11/29 05:20:44;;;;;;;1.98;1.40;;;13.90;59.80;;;;;;5053064;28;20542;-68
2023/11/29 05:23:09;;;;;;;1.67;1.58;;;13.90;59.90;;;;;;5052222;28;20629;-67
2023/11/29 05:25:35;;;;;;;2.38;1.83;;;13.90;59.60;;;;;;5052566;28;20270;-67
2023/11/29 05:28:00;;;;;;;1.60;1.50;;;13.90;59.80;;;;;;5053043;28;20270;-67
2023/11/29 05:30:26;;;;;;;1.67;1.58;;;13.90;59.80;;;;;;5052001;28;20177;-67
2023/11/29 05:32:51;;;;;;;1.50;1.40;;;13.80;59.40;;;;;;5052860;28;20198;-67
2023/11/29 05:35:17;;;;;;;1.80;1.60;;;13.90;59.80;;;;;;5052485;28;20254;-67
2023/11/29 05:37:42;;;;;;;1.58;1.48;;;13.90;60.90;;;;;;5051934;28;20198;-67
2023/11/29 05:40:09;;;;;;;1.80;1.70;;;13.90;60.10;;;;;;5052610;28;20194;-67
2023/11/29 05:42:35;;;;;;;1.63;1.40;;;13.80;59.90;;;;;;5051854;28;20179;-66
2023/11/29 05:45:03;;;;;;;2.22;1.63;;;13.90;59.90;;;;;;5052677;28;20175;-67
2023/11/29 05:47:29;;;;;;;1.45;1.35;;;13.90;60.00;;;;;;5052204;28;20622;-65
2023/11/29 05:49:55;;;;;;;1.70;1.55;;;13.90;59.90;;;;;;5051929;28;20189;-67
2023/11/29 05:52:23;;;;;;;1.90;1.63;;;13.90;60.00;;;;;;5052065;28;20226;-67
2023/11/29 05:54:49;;;;;;;1.77;1.52;;;14.40;60.20;;;;;;5052360;28;20188;-67
2023/11/29 05:57:15;;;;;;;2.42;1.38;;;13.90;59.90;;;;;;5051598;28;20193;-67
2023/11/29 05:59:40;;;;;;;1.70;1.60;;;13.90;59.90;;;;;;5052246;28;20710;-66
2023/11/29 06:02:06;;;;;;;1.50;1.40;;;13.90;60.10;;;;;;5052467;28;20185;-67
2023/11/29 06:04:32;;;;;;;1.80;1.60;;;13.90;60.00;;;;;;5051282;28;20183;-67
2023/11/29 06:06:57;;;;;;;1.80;1.67;;;13.80;60.00;;;;;;5052210;28;20591;-69
2023/11/29 06:09:28;;;;;;;1.70;1.60;;;13.80;59.90;;;;;;5051791;28;20187;-69
2023/11/29 06:11:54;;;;;;;1.70;1.60;;;13.80;59.90;;;;;;5051687;28;20183;-69
2023/11/29 06:14:22;;;;;;;1.70;1.58;;;13.90;59.80;;;;;;5051984;28;20266;-68
2023/11/29 06:16:48;;;;;;;1.50;1.40;;;14.00;59.80;;;;;;5052056;28;20191;-67
2023/11/29 06:19:13;;;;;;;1.60;1.50;;;14.10;59.90;;;;;;5050225;28;20218;-67
2023/11/29 06:21:39;;;;;;;1.45;1.35;;;14.20;59.90;;;;;;5051964;28;20171;-68
2023/11/29 06:24:05;;;;;;;1.92;1.25;;;14.40;59.60;;;;;;5052233;28;20228;-68
2023/11/29 06:26:32;;;;;;;1.13;1.02;;;14.60;59.50;;;;;;5051095;28;20224;-67
2023/11/29 06:28:58;;;;;;;1.45;1.35;;;14.80;59.20;;;;;;5051969;28;20183;-68
2023/11/29 06:31:24;;;;;;;1.20;1.10;;;15.00;59.00;;;;;;5051659;28;20181;-67
2023/11/29 06:33:49;;;;;;;1.40;1.30;;;15.20;58.80;;;;;;5051243;28;20174;-67
2023/11/29 06:36:15;;;;;;;1.05;1.05;;;15.30;58.50;;;;;;5051539;28;20167;-68
2023/11/29 06:38:42;;;;;;;1.38;1.27;;;15.50;58.30;;;;;;5051828;28;20211;-67
2023/11/29 06:41:08;;;;;;;1.35;1.20;;;15.60;58.00;;;;;;5051342;28;20267;-69
2023/11/29 06:43:34;;;;;;;1.08;1.00;;;15.70;57.90;;;;;;5051631;28;20203;-66
2023/11/29 06:46:02;;;;;;;1.73;1.15;;;15.80;57.80;;;;;;5051172;28;20558;-68
2023/11/29 06:48:28;;;;;;;1.20;1.10;;;15.80;57.70;;;;;;5050287;28;20178;-67
2023/11/29 06:50:53;;;;;;;1.33;1.10;;;15.90;57.70;;;;;;5051486;28;20234;-66
2023/11/29 06:53:19;;;;;;;0.90;0.90;;;15.90;57.60;;;;;;5050716;28;20178;-68
2023/11/29 06:55:48;;;;;;;1.55;1.30;;;15.90;57.80;;;;;;5051765;28;20198;-68
2023/11/29 06:58:14;;;;;;;2.15;1.17;;;15.90;57.60;;;;;;5051562;28;20214;-68
2023/11/29 07:00:40;;;;;;;1.20;1.00;;;15.80;57.70;;;;;;5050972;28;20167;-67
2023/11/29 07:03:05;;;;;;;1.17;1.08;;;15.80;57.80;;;;;;5051614;28;20175;-67
2023/11/29 07:05:30;;;;;;;1.33;0.93;;;15.80;57.80;;;;;;5051234;28;20580;-68
2023/11/29 07:07:56;;;;;;;0.80;0.80;;;15.80;57.80;;;;;;5050847;28;20225;-68
2023/11/29 07:10:22;;;;;;;1.10;0.88;;;15.90;58.00;;;;;;5051413;28;20221;-68
2023/11/29 07:12:48;;;;;;;1.20;1.10;;;16.10;57.90;;;;;;5051512;28;20601;-68
2023/11/29 07:15:15;;;;;;;0.80;0.80;;;16.10;57.70;;;;;;5051068;28;20527;-68
2023/11/29 07:17:40;;;;;;;1.10;1.00;;;16.30;57.40;;;;;;5051458;28;20228;-67
2023/11/29 07:20:06;;;;;;;0.90;0.90;;;16.40;57.20;;;;;;5051416;28;20713;-68
2023/11/29 07:22:34;;;;;;;0.85;0.85;;;16.50;57.00;;;;;;5050582;28;20175;-68
2023/11/29 07:25:00;;;;;;;1.10;0.90;;;16.60;57.00;;;;;;5051394;28;20649;-67
2023/11/29 07:27:26;;;;;;;0.73;0.73;;;16.70;56.90;;;;;;5051296;28;20187;-67
2023/11/29 07:29:52;;;;;;;0.88;0.88;;;16.70;56.80;;;;;;5051476;28;20539;-68
2023/11/29 07:32:22;;;;;;;0.80;0.80;;;16.70;56.80;;;;;;5054704;28;20535;-67
2023/11/29 07:34:51;;;;;;;1.02;0.80;;;16.70;56.70;;;;;;5054914;28;20269;-68
2023/11/29 07:37:19;;;;;;;1.17;0.80;;;16.80;56.60;;;;;;5054189;28;20214;-68
2023/11/29 07:39:44;;;;;;;1.58;0.85;;;16.90;56.60;;;;;;5055004;28;20305;-67
2023/11/29 07:42:10;;;;;;;1.00;0.80;;;16.90;56.50;;;;;;5054378;28;20261;-68
2023/11/29 07:44:35;;;;;;;0.77;0.77;;;16.90;56.40;;;;;;5054608;28;20175;-66
2023/11/29 07:47:03;;;;;;;0.75;0.65;;;17.00;56.40;;;;;;5054775;28;20175;-67
2023/11/29 07:49:29;;;;;;;0.63;0.63;;;16.90;56.30;;;;;;5053871;28;20179;-68
2023/11/29 07:51:55;;;;;;;0.60;0.60;;;17.00;56.40;;;;;;5054674;28;20227;-67
2023/11/29 07:54:20;;;;;;;0.60;0.60;;;17.00;56.30;;;;;;5054466;28;20171;-68
2023/11/29 07:56:46;;;;;;;0.70;0.60;;;17.10;56.40;;;;;;5054000;28;20273;-67
2023/11/29 07:59:12;;;;;;;0.60;0.60;;;17.10;56.30;;;;;;5054320;28;20633;-68
2023/11/29 08:01:38;;;;;;;0.70;0.70;;;17.10;56.30;;;;;;5054098;28;20585;-67
2023/11/29 08:04:04;;;;;;;0.63;0.63;;;17.10;56.20;;;;;;5053695;28;20198;-67
2023/11/29 08:06:30;;;;;;;0.70;0.70;;;17.20;56.20;;;;;;5054336;28;20184;-69
2023/11/29 08:08:56;;;;;;;0.80;0.60;;;17.30;56.10;;;;;;5054502;28;20175;-71
2023/11/29 08:11:22;;;;;;;0.60;0.60;;;17.20;56.00;;;;;;5053544;28;20182;-68
2023/11/29 08:13:47;;;;;;;0.57;0.57;;;17.30;56.20;;;;;;5054253;28;20179;-68
2023/11/29 08:16:13;;;;;;;1.00;0.73;;;17.30;56.10;;;;;;5054235;28;20221;-68
2023/11/29 08:18:39;;;;;;;0.80;0.68;;;17.30;56.20;;;;;;5053500;28;20203;-68
2023/11/29 08:21:04;;;;;;;0.70;0.70;;;17.30;56.10;;;;;;5054460;28;20171;-69
2023/11/29 08:23:30;;;;;;;0.47;0.47;;;17.40;56.10;;;;;;5053954;28;20182;-69
2023/11/29 08:25:55;;;;;;;1.38;0.70;;;17.40;56.10;;;;;;5053468;28;20635;-69
2023/11/29 08:28:21;;;;;;;0.60;0.55;;;17.40;56.00;;;;;;5053594;28;20693;-68
2023/11/29 08:30:46;;;;;;;0.60;0.55;;;17.50;56.00;;;;;;5053932;28;20418;-67
2023/11/29 08:33:12;;;;;;;0.85;0.60;;;17.50;56.00;;;;;;5053536;28;20175;-68
2023/11/29 08:35:37;;;;;;;0.75;0.70;;;17.50;56.00;;;;;;5053808;28;20179;-67
2023/11/29 08:38:03;;;;;;;0.40;0.40;;;17.50;56.10;;;;;;5053935;28;20210;-69
2023/11/29 08:40:29;;;;;;;1.15;0.70;;;17.40;56.20;;;;;;5052924;28;20521;-68
2023/11/29 08:42:54;;;;;;;0.52;0.50;;;17.40;56.20;;;;;;5052858;28;20171;-67
2023/11/29 08:45:20;;;;;;;0.45;0.45;;;17.40;56.30;;;;;;5053162;28;20177;-66
2023/11/29 08:47:45;;;;;;;0.77;0.50;;;17.40;56.30;;;;;;5053449;28;20186;-66
2023/11/29 08:50:11;;;;;;;1.58;0.82;;;17.40;56.40;;;;;;5053673;28;20201;-68
2023/11/29 08:52:37;;;;;;;0.75;0.75;;;17.50;56.30;;;;;;5052774;28;20713;-68
2023/11/29 08:55:04;;;;;;;0.80;0.55;;;17.50;56.20;;;;;;5053476;28;20660;-68
2023/11/29 08:57:30;;;;;;;0.85;0.65;;;17.50;56.30;;;;;;5053173;28;20591;-67
2023/11/29 08:59:57;;;;;;;0.77;0.60;;;17.60;56.30;;;;;;5052771;28;20211;-67
2023/11/29 09:02:23;;;;;;;0.80;0.80;;;17.50;56.50;;;;;;5053332;28;20175;-67
2023/11/29 09:04:49;;;;;;;0.70;0.63;;;17.50;56.40;;;;;;5053357;28;20175;-68
2023/11/29 09:07:15;;;;;;;0.68;0.60;;;17.40;56.50;;;;;;5052466;28;20175;-68
2023/11/29 09:09:43;;;;;;;0.73;0.70;;;17.40;56.70;;;;;;5053343;28;20175;-69
2023/11/29 09:12:12;;;;;;;0.82;0.80;;;17.40;56.90;;;;;;5053133;28;20297;-68
2023/11/29 09:14:38;;;;;;;0.57;0.52;;;17.30;57.00;;;;;;5052067;28;20225;-68
2023/11/29 09:17:04;;;;;;;1.15;0.77;;;17.30;57.30;;;;;;5053278;28;20206;-67
2023/11/29 09:19:32;;;;;;;0.50;0.40;;;17.20;57.30;;;;;;5052839;28;20215;-67
2023/11/29 09:21:58;;;;;;;0.43;0.43;;;17.10;57.30;;;;;;5052445;28;20208;-68
2023/11/29 09:24:23;;;;;;;1.40;0.95;;;17.00;57.60;;;;;;5052722;28;20527;-67
2023/11/29 09:26:49;;;;;;;0.50;0.50;;;16.90;57.90;;;;;;5052956;28;20575;-67
2023/11/29 09:29:15;;;;;;;0.68;0.65;;;16.90;58.00;;;;;;5051846;28;20175;-67
2023/11/29 09:31:41;;;;;;;0.77;0.50;;;16.80;58.10;;;;;;5052982;28;20286;-67
2023/11/29 09:34:07;;;;;;;0.90;0.80;;;16.80;58.20;;;;;;5052936;28;20254;-68
2023/11/29 09:36:33;;;;;;;0.77;0.60;;;16.70;58.10;;;;;;5051697;28;20255;-67
2023/11/29 09:38:58;;;;;;;0.90;0.65;;;16.70;58.40;;;;;;5052580;28;20215;-68
2023/11/29 09:41:24;;;;;;;0.60;0.60;;;16.70;58.50;;;;;;5052420;28;20254;-67
2023/11/29 09:43:49;;;;;;;0.70;0.70;;;16.70;58.50;;;;;;5050587;28;20596;-66
2023/11/29 09:46:15;;;;;;;1.45;0.68;;;16.70;58.50;;;;;;5052480;28;20179;-67
2023/11/29 09:48:42;;;;;;;0.55;0.55;;;16.70;58.50;;;;;;5051757;28;20265;-67
2023/11/29 09:51:07;;;;;;;1.10;0.65;;;16.70;58.50;;;;;;5051208;28;20283;-68
2023/11/29 09:53:33;;;;;;;0.70;0.70;;;16.70;58.60;;;;;;5052126;28;20179;-68
2023/11/29 09:55:58;;;;;;;0.60;0.60;;;16.60;58.60;;;;;;5050580;28;20175;-69
2023/11/29 09:58:24;;;;;;;0.75;0.75;;;16.60;58.80;;;;;;5050692;28;20202;-67
2023/11/29 10:00:50;;;;;;;0.82;0.60;;;16.60;58.70;;;;;;5052459;28;20183;-66
2023/11/29 10:03:16;;;;;;;1.00;0.70;;;16.50;58.80;;;;;;5051244;28;20638;-68
2023/11/29 10:05:46;;;;;;;0.60;0.60;;;16.50;59.00;;;;;;5052178;28;20183;-68
2023/11/29 10:08:16;;;;;;;1.17;0.55;;;16.40;59.00;;;;;;5052299;28;20233;-70
2023/11/29 10:10:43;;;;;;;0.85;0.80;;;16.40;59.10;;;;;;5051455;28;20175;-69
2023/11/29 10:13:09;;;;;;;0.50;0.50;;;16.30;59.20;;;;;;5052285;28;20186;-68
2023/11/29 10:15:34;;;;;;;0.90;0.60;;;16.30;59.10;;;;;;5050759;28;20681;-68
2023/11/29 10:18:02;;;;;;;0.73;0.63;;;16.30;59.20;;;;;;5051493;28;20568;-69
2023/11/29 10:20:29;;;;;;;0.70;0.70;;;16.30;59.20;;;;;;5051919;28;20210;-67
2023/11/29 10:22:55;;;;;;;0.70;0.70;;;16.30;59.20;;;;;;5052021;28;20179;-68
2023/11/29 10:25:21;;;;;;;0.75;0.60;;;16.30;59.20;;;;;;5051024;28;20182;-68
2023/11/29 10:27:47;;;;;;;0.80;0.80;;;16.30;59.30;;;;;;5051936;28;20167;-68
2023/11/29 10:30:13;;;;;;;0.50;0.50;;;16.30;60.00;;;;;;5051976;28;20179;-68
2023/11/29 10:32:39;;;;;;;0.63;0.50;;;16.20;59.40;;;;;;5051397;28;20652;-67
2023/11/29 10:35:05;;;;;;;0.73;0.70;;;16.20;59.40;;;;;;5052049;28;20209;-68
2023/11/29 10:37:31;;;;;;;0.75;0.60;;;16.20;59.40;;;;;;5050342;28;20665;-68
2023/11/29 10:39:56;;;;;;;1.48;0.65;;;16.20;59.40;;;;;;5049836;28;20313;-68
2023/11/29 10:42:22;;;;;;;1.02;0.70;;;16.20;59.40;;;;;;5050492;28;20175;-67
2023/11/29 10:44:48;;;;;;;0.50;0.50;;;16.30;59.40;;;;;;5050690;28;20190;-66
2023/11/29 10:47:15;;;;;;;0.77;0.70;;;16.30;59.30;;;;;;5051127;28;20189;-67
2023/11/29 10:50:02;;;;;;;0.90;0.77;;;16.30;59.20;;;;;;5051757;28;20179;-67
2023/11/29 10:52:30;;;;;;;0.75;0.60;;;16.30;59.20;;;;;;5049465;28;20231;-66
2023/11/29 10:54:55;;;;;;;2.25;0.60;;;16.30;59.30;;;;;;5052091;28;20243;-67
2023/11/29 10:57:35;;;;;;;1.02;0.70;;;16.30;59.30;;;;;;5051709;28;20257;-66
2023/11/29 11:00:15;;;;;;;1.25;0.70;;;16.30;59.30;;;;;;5049604;28;20218;-67
2023/11/29 11:02:46;;;;;;;0.88;0.60;;;16.20;59.40;;;;;;5050556;28;20178;-67
2023/11/29 11:05:13;;;;;;;0.80;0.60;;;16.20;59.40;;;;;;5051784;28;20175;-69
2023/11/29 11:07:42;;;;;;;0.63;0.60;;;16.10;59.50;;;;;;5054662;28;20185;-69
2023/11/29 11:10:15;;;;;;;0.63;0.63;;;16.20;59.60;;;;;;5055612;28;20206;-69
2023/11/29 11:12:41;;;;;;;0.80;0.50;;;16.20;59.60;;;;;;5054326;28;20297;-68
2023/11/29 11:15:14;;;;;;;0.50;0.50;;;16.20;59.60;;;;;;5054824;28;20257;-68
2023/11/29 11:17:42;;;;;;;0.85;0.50;;;16.20;59.50;;;;;;5055313;28;20309;-67
2023/11/29 11:20:08;;;;;;;1.02;0.70;;;16.20;59.50;;;;;;5054844;28;20270;-68
2023/11/29 11:22:43;;;;;;;0.80;0.70;;;16.10;59.50;;;;;;5055208;28;20175;-68
2023/11/29 11:25:12;;;;;;;1.25;0.88;;;16.10;59.60;;;;;;5055319;28;20240;-68
2023/11/29 11:27:45;;;;;;;1.27;0.68;;;16.10;59.60;;;;;;5054190;28;20213;-67
2023/11/29 11:30:13;;;;;;;0.70;0.70;;;16.10;59.70;;;;;;5054088;28;20309;-68
2023/11/29 11:32:42;;;;;;;0.75;0.55;;;16.10;59.70;;;;;;5055148;28;20194;-68
2023/11/29 11:35:21;;;;;;;0.60;0.60;;;16.10;59.70;;;;;;5054421;28;20186;-68
2023/11/29 11:37:47;;;;;;;0.90;0.73;;;16.10;59.70;;;;;;5054963;28;20175;-68
2023/11/29 11:40:14;;;;;;;2.15;0.80;;;16.10;59.70;;;;;;5054879;28;20188;-68
2023/11/29 11:42:39;;;;;;;0.77;0.57;;;16.10;59.70;;;;;;5054124;28;20190;-67
2023/11/29 11:45:06;;;;;;;0.63;0.50;;;16.10;59.60;;;;;;5055058;28;20179;-67
2023/11/29 11:47:32;;;;;;;0.60;0.60;;;16.10;59.60;;;;;;5054661;28;20183;-66
2023/11/29 11:49:58;;;;;;;0.55;0.55;;;16.10;59.60;;;;;;5054221;28;20183;-67
2023/11/29 11:52:25;;;;;;;1.05;0.60;;;16.00;59.50;;;;;;5054222;28;20230;-68
2023/11/29 11:54:50;;;;;;;0.80;0.60;;;16.10;59.60;;;;;;5054758;28;20309;-67
2023/11/29 11:57:15;;;;;;;0.63;0.63;;;16.10;59.60;;;;;;5053516;28;20262;-68
2023/11/29 11:59:41;;;;;;;0.82;0.77;;;16.10;59.60;;;;;;5054689;28;20211;-68
2023/11/29 12:02:07;;;;;;;0.95;0.73;;;16.00;60.40;;;;;;5053561;28;20167;-67
2023/11/29 12:04:32;;;;;;;1.23;0.73;;;16.00;59.70;;;;;;5053607;28;20237;-67
2023/11/29 12:06:58;;;;;;;0.98;0.60;;;16.00;59.80;;;;;;5054562;28;20178;-68
2023/11/29 12:09:26;;;;;;;0.70;0.70;;;16.00;59.80;;;;;;5053390;28;20171;-68
2023/11/29 12:12:14;;;;;;;0.60;0.60;;;16.10;59.90;;;;;;5053399;28;20179;-70
2023/11/29 12:14:46;;;;;;;1.42;0.77;;;16.00;59.80;;;;;;5054245;28;20569;-67
2023/11/29 12:17:12;;;;;;;0.68;0.68;;;16.00;59.80;;;;;;5052402;28;20172;-67
2023/11/29 12:19:47;;;;;;;0.60;0.60;;;16.00;59.80;;;;;;5053836;28;20345;-68
2023/11/29 12:22:13;;;;;;;0.68;0.65;;;16.00;59.80;;;;;;5054109;28;20633;-68
2023/11/29 12:24:42;;;;;;;1.02;0.57;;;16.00;59.80;;;;;;5053643;28;20185;-68
2023/11/29 12:27:08;;;;;;;0.73;0.70;;;15.90;59.80;;;;;;5054143;28;20258;-67
2023/11/29 12:29:35;;;;;;;1.15;0.57;;;15.90;59.80;;;;;;5053741;28;20652;-67
2023/11/29 12:32:01;;;;;;;2.63;1.13;;;15.90;59.80;;;;;;5053724;28;20175;-69
2023/11/29 12:34:26;;;;;;;0.55;0.55;;;16.00;59.70;;;;;;5052373;28;20254;-67
2023/11/29 12:36:57;;;;;;;1.45;0.70;;;16.00;59.70;;;;;;5052669;28;20206;-68
2023/11/29 12:39:27;;;;;;;0.80;0.60;;;16.00;59.60;;;;;;5051901;28;20272;-68
2023/11/29 12:41:52;;;;;;;1.00;0.90;;;16.00;59.60;;;;;;5053937;28;20179;-67
2023/11/29 12:44:18;;;;;;;0.80;0.60;;;16.00;59.60;;;;;;5053554;28;20179;-67